sensor_id;sensor_type;location;lat;lon;timestamp;P1;durP1;ratioP1;P2;durP2;ratioP2
16272;SDS011;8244;50.044;9.006;2024-02-26T00:01:13;4.40;;;1.85;;
16272;SDS011;8244;50.044;9.006;2024-02-26T00:06:16;2.97;;;1.60;;
16272;SDS011;8244;50.044;9.006;2024-02-26T00:11:18;2.72;;;2.13;;
16272;SDS011;8244;50.044;9.006;2024-02-26T00:16:19;2.22;;;1.58;;
16272;SDS011;8244;50.044;9.006;2024-02-26T00:21:22;3.70;;;1.80;;
16272;SDS011;8244;50.044;9.006;2024-02-26T00:26:24;2.60;;;1.77;;
16272;SDS011;8244;50.044;9.006;2024-02-26T00:31:26;2.83;;;1.95;;
16272;SDS011;8244;50.044;9.006;2024-02-26T00:36:30;2.88;;;1.90;;
16272;SDS011;8244;50.044;9.006;2024-02-26T00:41:31;3.40;;;2.03;;
16272;SDS011;8244;50.044;9.006;2024-02-26T00:46:33;4.00;;;1.95;;
16272;SDS011;8244;50.044;9.006;2024-02-26T00:51:36;2.67;;;1.80;;
16272;SDS011;8244;50.044;9.006;2024-02-26T00:56:38;3.63;;;1.95;;
16272;SDS011;8244;50.044;9.006;2024-02-26T01:01:39;2.88;;;2.00;;
16272;SDS011;8244;50.044;9.006;2024-02-26T01:06:42;3.45;;;2.13;;
16272;SDS011;8244;50.044;9.006;2024-02-26T01:11:44;3.53;;;2.38;;
16272;SDS011;8244;50.044;9.006;2024-02-26T01:16:47;4.47;;;2.20;;
16272;SDS011;8244;50.044;9.006;2024-02-26T01:21:49;4.03;;;2.10;;
16272;SDS011;8244;50.044;9.006;2024-02-26T01:26:51;4.38;;;2.67;;
16272;SDS011;8244;50.044;9.006;2024-02-26T01:31:53;5.60;;;2.30;;
16272;SDS011;8244;50.044;9.006;2024-02-26T01:36:56;3.67;;;1.98;;
16272;SDS011;8244;50.044;9.006;2024-02-26T01:41:58;4.13;;;2.20;;
16272;SDS011;8244;50.044;9.006;2024-02-26T01:46:59;3.42;;;2.50;;
16272;SDS011;8244;50.044;9.006;2024-02-26T01:52:04;3.78;;;2.00;;
16272;SDS011;8244;50.044;9.006;2024-02-26T01:57:08;4.28;;;2.38;;
16272;SDS011;8244;50.044;9.006;2024-02-26T02:02:10;3.13;;;2.20;;
16272;SDS011;8244;50.044;9.006;2024-02-26T02:07:14;3.25;;;2.30;;
16272;SDS011;8244;50.044;9.006;2024-02-26T02:12:17;3.75;;;2.60;;
16272;SDS011;8244;50.044;9.006;2024-02-26T02:17:20;6.30;;;2.55;;
16272;SDS011;8244;50.044;9.006;2024-02-26T02:22:23;3.35;;;2.20;;
16272;SDS011;8244;50.044;9.006;2024-02-26T02:27:24;5.78;;;2.38;;
16272;SDS011;8244;50.044;9.006;2024-02-26T02:32:27;5.72;;;2.50;;
16272;SDS011;8244;50.044;9.006;2024-02-26T02:37:31;3.90;;;2.47;;
16272;SDS011;8244;50.044;9.006;2024-02-26T02:42:32;3.75;;;2.42;;
16272;SDS011;8244;50.044;9.006;2024-02-26T02:47:35;5.38;;;2.30;;
16272;SDS011;8244;50.044;9.006;2024-02-26T02:52:39;5.07;;;2.28;;
16272;SDS011;8244;50.044;9.006;2024-02-26T02:57:41;9.35;;;2.47;;
16272;SDS011;8244;50.044;9.006;2024-02-26T03:02:42;5.03;;;2.40;;
16272;SDS011;8244;50.044;9.006;2024-02-26T03:07:46;5.20;;;2.70;;
16272;SDS011;8244;50.044;9.006;2024-02-26T03:12:49;5.22;;;2.88;;
16272;SDS011;8244;50.044;9.006;2024-02-26T03:17:51;4.50;;;2.50;;
16272;SDS011;8244;50.044;9.006;2024-02-26T03:22:54;3.72;;;2.47;;
16272;SDS011;8244;50.044;9.006;2024-02-26T03:27:55;6.00;;;3.08;;
16272;SDS011;8244;50.044;9.006;2024-02-26T03:32:57;5.63;;;3.10;;
16272;SDS011;8244;50.044;9.006;2024-02-26T03:38:01;4.15;;;2.50;;
16272;SDS011;8244;50.044;9.006;2024-02-26T03:43:02;3.92;;;2.60;;
16272;SDS011;8244;50.044;9.006;2024-02-26T03:48:06;3.80;;;2.47;;
16272;SDS011;8244;50.044;9.006;2024-02-26T03:53:09;4.38;;;2.50;;
16272;SDS011;8244;50.044;9.006;2024-02-26T03:58:12;6.90;;;3.30;;
16272;SDS011;8244;50.044;9.006;2024-02-26T04:03:14;4.00;;;2.50;;
16272;SDS011;8244;50.044;9.006;2024-02-26T04:08:18;4.57;;;2.70;;
16272;SDS011;8244;50.044;9.006;2024-02-26T04:13:19;4.72;;;2.72;;
16272;SDS011;8244;50.044;9.006;2024-02-26T04:18:21;5.22;;;2.90;;
16272;SDS011;8244;50.044;9.006;2024-02-26T04:23:24;6.57;;;2.85;;
16272;SDS011;8244;50.044;9.006;2024-02-26T04:28:26;7.07;;;3.25;;
16272;SDS011;8244;50.044;9.006;2024-02-26T04:33:29;6.65;;;2.90;;
16272;SDS011;8244;50.044;9.006;2024-02-26T04:38:32;5.05;;;2.97;;
16272;SDS011;8244;50.044;9.006;2024-02-26T04:43:34;8.07;;;3.10;;
16272;SDS011;8244;50.044;9.006;2024-02-26T04:48:41;4.22;;;2.92;;
16272;SDS011;8244;50.044;9.006;2024-02-26T04:53:44;3.88;;;2.50;;
16272;SDS011;8244;50.044;9.006;2024-02-26T04:58:45;5.53;;;3.05;;
16272;SDS011;8244;50.044;9.006;2024-02-26T05:03:47;4.25;;;2.70;;
16272;SDS011;8244;50.044;9.006;2024-02-26T05:08:50;4.20;;;2.50;;
16272;SDS011;8244;50.044;9.006;2024-02-26T05:13:52;3.80;;;2.50;;
16272;SDS011;8244;50.044;9.006;2024-02-26T05:18:54;4.20;;;2.53;;
16272;SDS011;8244;50.044;9.006;2024-02-26T05:23:57;3.63;;;2.28;;
16272;SDS011;8244;50.044;9.006;2024-02-26T05:28:58;4.05;;;2.10;;
16272;SDS011;8244;50.044;9.006;2024-02-26T05:34:00;4.05;;;2.40;;
16272;SDS011;8244;50.044;9.006;2024-02-26T05:39:03;2.53;;;2.20;;
16272;SDS011;8244;50.044;9.006;2024-02-26T05:44:05;3.00;;;2.20;;
16272;SDS011;8244;50.044;9.006;2024-02-26T05:49:10;3.50;;;2.38;;
16272;SDS011;8244;50.044;9.006;2024-02-26T05:54:13;6.47;;;2.80;;
16272;SDS011;8244;50.044;9.006;2024-02-26T05:59:14;6.50;;;2.53;;
16272;SDS011;8244;50.044;9.006;2024-02-26T06:04:16;4.72;;;3.00;;
16272;SDS011;8244;50.044;9.006;2024-02-26T06:09:19;6.15;;;3.20;;
16272;SDS011;8244;50.044;9.006;2024-02-26T06:14:21;5.50;;;3.08;;
16272;SDS011;8244;50.044;9.006;2024-02-26T06:19:23;5.85;;;3.28;;
16272;SDS011;8244;50.044;9.006;2024-02-26T06:24:26;5.05;;;2.90;;
16272;SDS011;8244;50.044;9.006;2024-02-26T06:29:28;4.20;;;2.70;;
16272;SDS011;8244;50.044;9.006;2024-02-26T06:34:30;5.50;;;2.78;;
16272;SDS011;8244;50.044;9.006;2024-02-26T06:39:33;5.03;;;3.00;;
16272;SDS011;8244;50.044;9.006;2024-02-26T06:44:34;6.18;;;3.15;;
16272;SDS011;8244;50.044;9.006;2024-02-26T06:49:36;4.80;;;2.83;;
16272;SDS011;8244;50.044;9.006;2024-02-26T06:54:39;7.25;;;3.58;;
16272;SDS011;8244;50.044;9.006;2024-02-26T06:59:41;5.18;;;3.15;;
16272;SDS011;8244;50.044;9.006;2024-02-26T07:04:46;9.15;;;4.40;;
16272;SDS011;8244;50.044;9.006;2024-02-26T07:09:49;9.60;;;4.97;;
16272;SDS011;8244;50.044;9.006;2024-02-26T07:14:50;7.28;;;4.18;;
16272;SDS011;8244;50.044;9.006;2024-02-26T07:19:52;8.05;;;3.45;;
16272;SDS011;8244;50.044;9.006;2024-02-26T07:24:55;6.25;;;3.50;;
16272;SDS011;8244;50.044;9.006;2024-02-26T07:29:58;8.02;;;4.25;;
16272;SDS011;8244;50.044;9.006;2024-02-26T07:35:00;8.13;;;3.80;;
16272;SDS011;8244;50.044;9.006;2024-02-26T07:40:04;6.65;;;3.92;;
16272;SDS011;8244;50.044;9.006;2024-02-26T07:45:08;8.57;;;4.00;;
16272;SDS011;8244;50.044;9.006;2024-02-26T07:50:10;7.22;;;4.00;;
16272;SDS011;8244;50.044;9.006;2024-02-26T07:55:14;9.40;;;4.57;;
16272;SDS011;8244;50.044;9.006;2024-02-26T08:00:16;9.07;;;4.38;;
16272;SDS011;8244;50.044;9.006;2024-02-26T08:05:18;8.80;;;4.40;;
16272;SDS011;8244;50.044;9.006;2024-02-26T08:10:21;9.88;;;5.07;;
16272;SDS011;8244;50.044;9.006;2024-02-26T08:15:23;6.63;;;4.32;;
16272;SDS011;8244;50.044;9.006;2024-02-26T08:20:24;7.65;;;4.10;;
16272;SDS011;8244;50.044;9.006;2024-02-26T08:25:27;8.07;;;3.95;;
16272;SDS011;8244;50.044;9.006;2024-02-26T08:30:29;7.32;;;3.90;;
16272;SDS011;8244;50.044;9.006;2024-02-26T08:35:31;5.88;;;3.53;;
16272;SDS011;8244;50.044;9.006;2024-02-26T08:40:34;6.35;;;3.45;;
16272;SDS011;8244;50.044;9.006;2024-02-26T08:45:36;7.72;;;3.80;;
16272;SDS011;8244;50.044;9.006;2024-02-26T08:50:38;6.40;;;3.60;;
16272;SDS011;8244;50.044;9.006;2024-02-26T08:55:41;6.38;;;3.65;;
16272;SDS011;8244;50.044;9.006;2024-02-26T09:00:42;6.75;;;3.63;;
16272;SDS011;8244;50.044;9.006;2024-02-26T09:05:44;7.68;;;4.25;;
16272;SDS011;8244;50.044;9.006;2024-02-26T09:10:47;8.48;;;4.22;;
16272;SDS011;8244;50.044;9.006;2024-02-26T09:15:50;6.80;;;3.55;;
16272;SDS011;8244;50.044;9.006;2024-02-26T09:20:52;7.20;;;3.97;;
16272;SDS011;8244;50.044;9.006;2024-02-26T09:25:55;7.57;;;4.32;;
16272;SDS011;8244;50.044;9.006;2024-02-26T09:30:57;7.35;;;4.00;;
16272;SDS011;8244;50.044;9.006;2024-02-26T09:35:58;7.85;;;4.07;;
16272;SDS011;8244;50.044;9.006;2024-02-26T09:41:02;7.65;;;3.88;;
16272;SDS011;8244;50.044;9.006;2024-02-26T09:46:04;7.43;;;4.18;;
16272;SDS011;8244;50.044;9.006;2024-02-26T09:51:07;7.65;;;4.72;;
16272;SDS011;8244;50.044;9.006;2024-02-26T09:56:12;8.07;;;4.65;;
16272;SDS011;8244;50.044;9.006;2024-02-26T10:01:16;8.75;;;5.13;;
16272;SDS011;8244;50.044;9.006;2024-02-26T10:06:19;8.30;;;4.32;;
16272;SDS011;8244;50.044;9.006;2024-02-26T10:11:22;6.88;;;4.15;;
16272;SDS011;8244;50.044;9.006;2024-02-26T10:16:24;8.65;;;4.20;;
16272;SDS011;8244;50.044;9.006;2024-02-26T10:21:26;7.82;;;4.30;;
16272;SDS011;8244;50.044;9.006;2024-02-26T10:26:29;9.52;;;5.18;;
16272;SDS011;8244;50.044;9.006;2024-02-26T10:31:31;6.72;;;4.38;;
16272;SDS011;8244;50.044;9.006;2024-02-26T10:36:33;7.97;;;4.80;;
16272;SDS011;8244;50.044;9.006;2024-02-26T10:41:36;8.10;;;4.55;;
16272;SDS011;8244;50.044;9.006;2024-02-26T10:46:38;6.63;;;4.05;;
16272;SDS011;8244;50.044;9.006;2024-02-26T10:51:43;7.25;;;4.10;;
16272;SDS011;8244;50.044;9.006;2024-02-26T10:56:48;6.90;;;4.10;;
16272;SDS011;8244;50.044;9.006;2024-02-26T11:01:52;7.45;;;3.80;;
16272;SDS011;8244;50.044;9.006;2024-02-26T11:06:56;6.90;;;3.92;;
16272;SDS011;8244;50.044;9.006;2024-02-26T11:11:59;7.72;;;4.28;;
16272;SDS011;8244;50.044;9.006;2024-02-26T11:17:08;7.57;;;3.72;;
16272;SDS011;8244;50.044;9.006;2024-02-26T11:22:10;7.60;;;3.88;;
16272;SDS011;8244;50.044;9.006;2024-02-26T11:27:13;7.47;;;4.22;;
16272;SDS011;8244;50.044;9.006;2024-02-26T11:32:19;7.22;;;4.18;;
16272;SDS011;8244;50.044;9.006;2024-02-26T11:37:21;7.90;;;4.18;;
16272;SDS011;8244;50.044;9.006;2024-02-26T11:42:25;8.75;;;4.43;;
16272;SDS011;8244;50.044;9.006;2024-02-26T11:47:26;7.95;;;4.30;;
16272;SDS011;8244;50.044;9.006;2024-02-26T11:52:28;5.97;;;4.05;;
16272;SDS011;8244;50.044;9.006;2024-02-26T11:57:38;6.85;;;3.88;;
16272;SDS011;8244;50.044;9.006;2024-02-26T12:02:40;7.55;;;3.92;;
16272;SDS011;8244;50.044;9.006;2024-02-26T12:07:45;6.70;;;3.65;;
16272;SDS011;8244;50.044;9.006;2024-02-26T12:12:49;5.40;;;3.38;;
16272;SDS011;8244;50.044;9.006;2024-02-26T12:17:53;6.07;;;3.15;;
16272;SDS011;8244;50.044;9.006;2024-02-26T12:22:55;6.70;;;3.47;;
16272;SDS011;8244;50.044;9.006;2024-02-26T12:27:59;5.47;;;3.83;;
16272;SDS011;8244;50.044;9.006;2024-02-26T12:33:01;6.05;;;3.47;;
16272;SDS011;8244;50.044;9.006;2024-02-26T12:38:03;4.60;;;3.17;;
16272;SDS011;8244;50.044;9.006;2024-02-26T12:43:07;6.75;;;3.53;;
16272;SDS011;8244;50.044;9.006;2024-02-26T12:48:12;5.57;;;3.30;;
16272;SDS011;8244;50.044;9.006;2024-02-26T12:53:15;6.38;;;3.15;;
16272;SDS011;8244;50.044;9.006;2024-02-26T12:58:18;6.82;;;3.30;;
16272;SDS011;8244;50.044;9.006;2024-02-26T13:03:24;5.10;;;2.90;;
16272;SDS011;8244;50.044;9.006;2024-02-26T13:08:27;6.05;;;3.17;;
16272;SDS011;8244;50.044;9.006;2024-02-26T13:13:30;4.95;;;2.90;;
16272;SDS011;8244;50.044;9.006;2024-02-26T13:18:35;4.88;;;2.92;;
16272;SDS011;8244;50.044;9.006;2024-02-26T13:23:37;4.43;;;2.95;;
16272;SDS011;8244;50.044;9.006;2024-02-26T13:28:41;4.43;;;2.75;;
16272;SDS011;8244;50.044;9.006;2024-02-26T13:33:43;5.68;;;3.10;;
16272;SDS011;8244;50.044;9.006;2024-02-26T13:38:51;7.28;;;3.10;;
16272;SDS011;8244;50.044;9.006;2024-02-26T13:43:55;3.90;;;2.78;;
16272;SDS011;8244;50.044;9.006;2024-02-26T13:48:57;7.68;;;2.97;;
16272;SDS011;8244;50.044;9.006;2024-02-26T13:53:59;6.70;;;2.90;;
16272;SDS011;8244;50.044;9.006;2024-02-26T13:59:02;7.18;;;2.92;;
16272;SDS011;8244;50.044;9.006;2024-02-26T14:04:04;4.95;;;2.80;;
16272;SDS011;8244;50.044;9.006;2024-02-26T14:09:07;3.88;;;2.70;;
16272;SDS011;8244;50.044;9.006;2024-02-26T14:14:10;2.95;;;2.50;;
16272;SDS011;8244;50.044;9.006;2024-02-26T14:19:12;4.85;;;2.90;;
16272;SDS011;8244;50.044;9.006;2024-02-26T14:24:14;4.20;;;2.53;;
16272;SDS011;8244;50.044;9.006;2024-02-26T14:29:17;4.18;;;2.60;;
16272;SDS011;8244;50.044;9.006;2024-02-26T14:34:18;4.10;;;2.80;;
16272;SDS011;8244;50.044;9.006;2024-02-26T14:39:20;3.90;;;2.40;;
16272;SDS011;8244;50.044;9.006;2024-02-26T14:44:23;7.00;;;2.60;;
16272;SDS011;8244;50.044;9.006;2024-02-26T14:49:25;5.18;;;2.42;;
16272;SDS011;8244;50.044;9.006;2024-02-26T14:54:27;4.13;;;2.58;;
16272;SDS011;8244;50.044;9.006;2024-02-26T14:59:34;4.78;;;2.80;;
16272;SDS011;8244;50.044;9.006;2024-02-26T15:04:36;3.38;;;2.60;;
16272;SDS011;8244;50.044;9.006;2024-02-26T15:09:39;3.28;;;2.47;;
16272;SDS011;8244;50.044;9.006;2024-02-26T15:14:42;4.90;;;3.17;;
16272;SDS011;8244;50.044;9.006;2024-02-26T15:19:44;3.75;;;2.50;;
16272;SDS011;8244;50.044;9.006;2024-02-26T15:24:46;3.38;;;2.17;;
16272;SDS011;8244;50.044;9.006;2024-02-26T15:29:49;3.88;;;2.30;;
16272;SDS011;8244;50.044;9.006;2024-02-26T15:34:56;3.88;;;2.50;;
16272;SDS011;8244;50.044;9.006;2024-02-26T15:39:58;3.10;;;2.35;;
16272;SDS011;8244;50.044;9.006;2024-02-26T15:45:01;3.45;;;2.20;;
16272;SDS011;8244;50.044;9.006;2024-02-26T15:50:03;3.88;;;2.50;;
16272;SDS011;8244;50.044;9.006;2024-02-26T15:55:06;3.65;;;2.50;;
16272;SDS011;8244;50.044;9.006;2024-02-26T16:00:10;2.97;;;2.30;;
16272;SDS011;8244;50.044;9.006;2024-02-26T16:05:12;5.53;;;2.65;;
16272;SDS011;8244;50.044;9.006;2024-02-26T16:10:14;2.75;;;2.20;;
16272;SDS011;8244;50.044;9.006;2024-02-26T16:15:17;4.60;;;2.42;;
16272;SDS011;8244;50.044;9.006;2024-02-26T16:20:21;4.70;;;2.53;;
16272;SDS011;8244;50.044;9.006;2024-02-26T16:25:24;6.03;;;2.83;;
16272;SDS011;8244;50.044;9.006;2024-02-26T16:30:28;5.47;;;2.53;;
16272;SDS011;8244;50.044;9.006;2024-02-26T16:35:32;5.75;;;2.72;;
16272;SDS011;8244;50.044;9.006;2024-02-26T16:40:33;3.58;;;2.55;;
16272;SDS011;8244;50.044;9.006;2024-02-26T16:45:37;5.90;;;2.63;;
16272;SDS011;8244;50.044;9.006;2024-02-26T16:50:39;4.28;;;2.90;;
16272;SDS011;8244;50.044;9.006;2024-02-26T16:55:41;6.07;;;3.60;;
16272;SDS011;8244;50.044;9.006;2024-02-26T17:00:44;6.38;;;3.05;;
16272;SDS011;8244;50.044;9.006;2024-02-26T17:05:45;4.20;;;2.45;;
16272;SDS011;8244;50.044;9.006;2024-02-26T17:10:47;4.65;;;2.67;;
16272;SDS011;8244;50.044;9.006;2024-02-26T17:15:50;4.68;;;2.60;;
16272;SDS011;8244;50.044;9.006;2024-02-26T17:20:52;4.18;;;2.63;;
16272;SDS011;8244;50.044;9.006;2024-02-26T17:25:55;5.38;;;2.80;;
16272;SDS011;8244;50.044;9.006;2024-02-26T17:30:58;4.95;;;2.80;;
16272;SDS011;8244;50.044;9.006;2024-02-26T17:36:00;4.93;;;3.08;;
16272;SDS011;8244;50.044;9.006;2024-02-26T17:41:01;6.75;;;3.50;;
16272;SDS011;8244;50.044;9.006;2024-02-26T17:46:07;9.10;;;4.38;;
16272;SDS011;8244;50.044;9.006;2024-02-26T17:51:08;7.07;;;3.80;;
16272;SDS011;8244;50.044;9.006;2024-02-26T17:56:11;7.93;;;3.70;;
16272;SDS011;8244;50.044;9.006;2024-02-26T18:01:15;6.22;;;3.47;;
16272;SDS011;8244;50.044;9.006;2024-02-26T18:06:16;7.57;;;3.15;;
16272;SDS011;8244;50.044;9.006;2024-02-26T18:11:18;5.20;;;3.20;;
16272;SDS011;8244;50.044;9.006;2024-02-26T18:16:21;5.45;;;3.03;;
16272;SDS011;8244;50.044;9.006;2024-02-26T18:21:23;7.15;;;3.65;;
16272;SDS011;8244;50.044;9.006;2024-02-26T18:26:25;5.63;;;3.53;;
16272;SDS011;8244;50.044;9.006;2024-02-26T18:31:29;6.00;;;3.08;;
16272;SDS011;8244;50.044;9.006;2024-02-26T18:36:30;7.53;;;3.60;;
16272;SDS011;8244;50.044;9.006;2024-02-26T18:41:32;9.00;;;4.95;;
16272;SDS011;8244;50.044;9.006;2024-02-26T18:46:36;5.65;;;3.35;;
16272;SDS011;8244;50.044;9.006;2024-02-26T18:51:44;6.85;;;3.60;;
16272;SDS011;8244;50.044;9.006;2024-02-26T18:56:45;5.82;;;3.53;;
16272;SDS011;8244;50.044;9.006;2024-02-26T19:01:49;5.07;;;3.38;;
16272;SDS011;8244;50.044;9.006;2024-02-26T19:06:51;9.27;;;4.43;;
16272;SDS011;8244;50.044;9.006;2024-02-26T19:11:52;8.63;;;4.65;;
16272;SDS011;8244;50.044;9.006;2024-02-26T19:16:56;8.52;;;4.75;;
16272;SDS011;8244;50.044;9.006;2024-02-26T19:21:58;9.63;;;5.50;;
16272;SDS011;8244;50.044;9.006;2024-02-26T19:27:00;10.77;;;5.88;;
16272;SDS011;8244;50.044;9.006;2024-02-26T19:32:03;9.70;;;5.78;;
16272;SDS011;8244;50.044;9.006;2024-02-26T19:37:05;10.95;;;5.43;;
16272;SDS011;8244;50.044;9.006;2024-02-26T19:42:07;12.35;;;6.32;;
16272;SDS011;8244;50.044;9.006;2024-02-26T19:47:12;10.95;;;4.97;;
16272;SDS011;8244;50.044;9.006;2024-02-26T19:52:13;7.47;;;3.55;;
16272;SDS011;8244;50.044;9.006;2024-02-26T19:57:16;8.38;;;4.10;;
16272;SDS011;8244;50.044;9.006;2024-02-26T20:02:19;8.10;;;4.03;;
16272;SDS011;8244;50.044;9.006;2024-02-26T20:07:21;8.27;;;4.25;;
16272;SDS011;8244;50.044;9.006;2024-02-26T20:12:23;7.70;;;4.15;;
16272;SDS011;8244;50.044;9.006;2024-02-26T20:17:26;6.43;;;4.22;;
16272;SDS011;8244;50.044;9.006;2024-02-26T20:22:27;7.68;;;4.53;;
16272;SDS011;8244;50.044;9.006;2024-02-26T20:27:29;8.43;;;5.10;;
16272;SDS011;8244;50.044;9.006;2024-02-26T20:32:32;9.88;;;5.68;;
16272;SDS011;8244;50.044;9.006;2024-02-26T20:37:34;9.48;;;5.63;;
16272;SDS011;8244;50.044;9.006;2024-02-26T20:42:35;11.38;;;5.78;;
16272;SDS011;8244;50.044;9.006;2024-02-26T20:47:38;11.75;;;6.10;;
16272;SDS011;8244;50.044;9.006;2024-02-26T20:52:40;13.73;;;7.20;;
16272;SDS011;8244;50.044;9.006;2024-02-26T20:57:42;12.52;;;7.22;;
16272;SDS011;8244;50.044;9.006;2024-02-26T21:02:45;13.15;;;7.70;;
16272;SDS011;8244;50.044;9.006;2024-02-26T21:07:47;13.07;;;8.10;;
16272;SDS011;8244;50.044;9.006;2024-02-26T21:12:48;14.52;;;9.27;;
16272;SDS011;8244;50.044;9.006;2024-02-26T21:17:52;18.40;;;9.45;;
16272;SDS011;8244;50.044;9.006;2024-02-26T21:22:54;14.48;;;8.77;;
16272;SDS011;8244;50.044;9.006;2024-02-26T21:27:56;14.40;;;9.77;;
16272;SDS011;8244;50.044;9.006;2024-02-26T21:33:00;14.82;;;9.45;;
16272;SDS011;8244;50.044;9.006;2024-02-26T21:38:03;16.73;;;10.85;;
16272;SDS011;8244;50.044;9.006;2024-02-26T21:43:05;14.75;;;10.05;;
16272;SDS011;8244;50.044;9.006;2024-02-26T21:48:08;16.50;;;10.48;;
16272;SDS011;8244;50.044;9.006;2024-02-26T21:53:10;17.40;;;10.95;;
16272;SDS011;8244;50.044;9.006;2024-02-26T21:58:11;15.85;;;10.60;;
16272;SDS011;8244;50.044;9.006;2024-02-26T22:03:14;16.80;;;10.38;;
16272;SDS011;8244;50.044;9.006;2024-02-26T22:08:16;16.77;;;11.27;;
16272;SDS011;8244;50.044;9.006;2024-02-26T22:13:18;17.38;;;10.80;;
16272;SDS011;8244;50.044;9.006;2024-02-26T22:18:21;19.23;;;11.18;;
16272;SDS011;8244;50.044;9.006;2024-02-26T22:23:22;17.70;;;11.13;;
16272;SDS011;8244;50.044;9.006;2024-02-26T22:28:24;18.05;;;11.70;;
16272;SDS011;8244;50.044;9.006;2024-02-26T22:33:27;17.10;;;11.07;;
16272;SDS011;8244;50.044;9.006;2024-02-26T22:38:29;17.10;;;11.65;;
16272;SDS011;8244;50.044;9.006;2024-02-26T22:43:30;17.85;;;12.10;;
16272;SDS011;8244;50.044;9.006;2024-02-26T22:48:33;18.35;;;12.57;;
16272;SDS011;8244;50.044;9.006;2024-02-26T22:53:35;18.45;;;12.77;;
16272;SDS011;8244;50.044;9.006;2024-02-26T22:58:37;18.08;;;12.35;;
16272;SDS011;8244;50.044;9.006;2024-02-26T23:03:40;19.42;;;12.85;;
16272;SDS011;8244;50.044;9.006;2024-02-26T23:08:41;21.08;;;13.68;;
16272;SDS011;8244;50.044;9.006;2024-02-26T23:13:43;19.27;;;12.30;;
16272;SDS011;8244;50.044;9.006;2024-02-26T23:18:47;20.63;;;13.25;;
16272;SDS011;8244;50.044;9.006;2024-02-26T23:23:49;20.23;;;12.95;;
16272;SDS011;8244;50.044;9.006;2024-02-26T23:28:52;20.65;;;13.68;;
16272;SDS011;8244;50.044;9.006;2024-02-26T23:33:55;20.63;;;13.80;;
16272;SDS011;8244;50.044;9.006;2024-02-26T23:38:57;22.13;;;14.07;;
16272;SDS011;8244;50.044;9.006;2024-02-26T23:44:00;21.70;;;14.70;;
16272;SDS011;8244;50.044;9.006;2024-02-26T23:49:03;21.83;;;13.82;;
16272;SDS011;8244;50.044;9.006;2024-02-26T23:54:06;21.33;;;14.80;;
16272;SDS011;8244;50.044;9.006;2024-02-26T23:59:07;23.98;;;15.15;;
